createdAt,value
2023-03-11T00:00:13.586Z,99553.80
2023-03-11T00:00:37.706Z,99557.39
2023-03-11T00:01:00.821Z,99550.98
2023-03-11T00:01:24.451Z,99549.84
2023-03-11T00:01:47.471Z,99552.54
2023-03-11T00:02:10.913Z,99552.59
2023-03-11T00:02:34.204Z,99550.78
2023-03-11T00:02:58.764Z,99546.73
2023-03-11T00:03:25.029Z,99550.65
2023-03-11T00:03:49.370Z,99551.27
2023-03-11T00:04:12.820Z,99551.02
2023-03-11T00:04:36.309Z,99551.48
2023-03-11T00:04:59.512Z,99552.10
2023-03-11T00:05:26.521Z,99552.23
2023-03-11T00:05:49.992Z,99552.68
2023-03-11T00:06:14.430Z,99554.86
2023-03-11T00:06:37.930Z,99553.21
2023-03-11T00:07:01.771Z,99553.82
2023-03-11T00:07:27.929Z,99552.56
2023-03-11T00:07:51.150Z,99552.27
2023-03-11T00:08:16.335Z,99552.96
2023-03-11T00:08:39.933Z,99552.41
2023-03-11T00:09:05.298Z,99551.81
2023-03-11T00:09:31.583Z,99550.19
2023-03-11T00:09:55.716Z,99547.00
2023-03-11T00:10:19.853Z,99546.77
2023-03-11T00:10:44.296Z,99546.56
2023-03-11T00:11:09.156Z,99546.57
2023-03-11T00:11:35.750Z,99542.49
2023-03-11T00:12:01.002Z,99543.77
2023-03-11T00:12:25.657Z,99543.67
2023-03-11T00:12:49.790Z,99543.41
2023-03-11T00:13:14.337Z,99540.70
2023-03-11T00:13:38.164Z,99542.02
2023-03-11T00:14:01.280Z,99541.60
2023-03-11T00:14:24.438Z,99538.73
2023-03-11T00:14:47.613Z,99537.41
2023-03-11T00:15:11.240Z,99538.73
2023-03-11T00:15:37.008Z,99535.54
2023-03-11T00:16:02.308Z,99538.57
2023-03-11T00:16:30.693Z,99537.30
2023-03-11T00:16:53.996Z,99538.40
2023-03-11T00:17:17.244Z,99532.94
2023-03-11T00:17:48.354Z,99534.77
2023-03-11T00:18:11.554Z,99534.00
2023-03-11T00:18:36.311Z,99534.73
2023-03-11T00:19:00.542Z,99531.88
2023-03-11T00:19:23.868Z,99533.58
2023-03-11T00:19:47.480Z,99535.42
2023-03-11T00:20:20.520Z,99533.55
2023-03-11T00:20:44.759Z,99533.86
2023-03-11T00:21:12.572Z,99534.61
2023-03-11T00:21:35.786Z,99534.17
2023-03-11T00:21:58.800Z,99530.48
2023-03-11T00:22:21.798Z,99531.70
2023-03-11T00:22:46.564Z,99530.91
2023-03-11T00:23:11.515Z,99533.43
2023-03-11T00:23:36.985Z,99533.15
2023-03-11T00:24:01.432Z,99532.82
2023-03-11T00:24:25.669Z,99532.11
2023-03-11T00:24:49.085Z,99535.20
2023-03-11T00:25:12.814Z,99533.24
2023-03-11T00:25:37.018Z,99530.88
2023-03-11T00:26:02.036Z,99531.23
2023-03-11T00:26:25.536Z,99532.17
2023-03-11T00:26:48.803Z,99528.79
2023-03-11T00:27:12.270Z,99528.31
2023-03-11T00:27:37.434Z,99526.11
2023-03-11T00:28:00.962Z,99526.37
2023-03-11T00:28:26.931Z,99526.77
2023-03-11T00:28:52.382Z,99525.48
2023-03-11T00:29:15.332Z,99523.60
2023-03-11T00:29:38.332Z,99526.39
2023-03-11T00:30:01.440Z,99524.36
2023-03-11T00:30:24.692Z,99526.15
2023-03-11T00:30:49.639Z,99526.73
2023-03-11T00:31:13.930Z,99527.88
2023-03-11T00:31:56.899Z,99524.44
2023-03-11T00:32:20.070Z,99522.62
2023-03-11T00:32:43.382Z,99524.45
2023-03-11T00:33:19.024Z,99522.34
2023-03-11T00:33:46.233Z,99523.13
2023-03-11T00:34:59.872Z,99520.40
2023-03-11T00:35:24.724Z,99519.46
2023-03-11T00:35:48.194Z,99520.39
2023-03-11T00:36:42.141Z,99519.75
2023-03-11T00:37:05.972Z,99517.05
2023-03-11T00:37:29.214Z,99513.68
2023-03-11T00:37:56.310Z,99511.61
2023-03-11T00:38:19.374Z,99514.28
2023-03-11T00:38:42.662Z,99510.85
2023-03-11T00:39:11.268Z,99513.52
2023-03-11T00:39:34.371Z,99511.84
2023-03-11T00:39:57.613Z,99512.27
2023-03-11T00:40:21.009Z,99508.65
2023-03-11T00:40:45.352Z,99513.41
2023-03-11T00:41:08.873Z,99507.41
2023-03-11T00:41:35.056Z,99507.95
2023-03-11T00:41:58.493Z,99507.27
2023-03-11T00:42:21.702Z,99507.54
2023-03-11T00:42:45.009Z,99504.66
2023-03-11T00:43:08.333Z,99503.91
2023-03-11T00:43:32.579Z,99507.27
2023-03-11T00:43:55.501Z,99507.30
2023-03-11T00:44:19.614Z,99506.34
2023-03-11T00:44:43.239Z,99505.73
2023-03-11T00:45:13.108Z,99503.17
2023-03-11T00:45:36.634Z,99502.41
2023-03-11T00:46:00.118Z,99503.82
2023-03-11T00:46:23.445Z,99503.48
2023-03-11T00:46:46.789Z,99502.12
2023-03-11T00:47:13.482Z,99506.17
2023-03-11T00:47:38.026Z,99503.19
2023-03-11T00:48:01.146Z,99502.34
2023-03-11T00:48:25.229Z,99503.52
2023-03-11T00:48:50.335Z,99503.38
2023-03-11T00:49:13.555Z,99503.05
2023-03-11T00:49:37.077Z,99500.96
2023-03-11T00:50:00.391Z,99500.98
2023-03-11T00:50:24.426Z,99503.31
2023-03-11T00:50:47.552Z,99499.44
2023-03-11T00:51:11.892Z,99498.11
2023-03-11T00:51:35.123Z,99496.96
2023-03-11T00:52:00.165Z,99494.10
2023-03-11T00:52:23.273Z,99497.52
2023-03-11T00:52:46.867Z,99492.23
2023-03-11T00:53:10.433Z,99491.98
2023-03-11T00:53:34.355Z,99496.68
2023-03-11T00:53:57.591Z,99496.56
2023-03-11T00:54:21.097Z,99497.20
2023-03-11T00:54:46.353Z,99496.77
2023-03-11T00:55:10.494Z,99496.52
2023-03-11T00:55:33.914Z,99495.20
2023-03-11T00:55:58.763Z,99498.59
2023-03-11T00:56:21.980Z,99497.77
2023-03-11T00:56:45.097Z,99495.73
2023-03-11T00:57:11.069Z,99490.29
2023-03-11T00:57:36.542Z,99492.70
2023-03-11T00:58:00.599Z,99492.86
2023-03-11T00:58:29.210Z,99489.14
2023-03-11T00:58:53.653Z,99489.92
2023-03-11T00:59:17.789Z,99490.71
2023-03-11T00:59:41.110Z,99488.71
2023-03-11T01:00:04.843Z,99491.23
2023-03-11T01:00:29.713Z,99489.74
2023-03-11T01:00:53.215Z,99486.89
2023-03-11T01:01:17.620Z,99482.81
2023-03-11T01:01:40.845Z,99483.66
2023-03-11T01:02:04.400Z,99485.23
2023-03-11T01:02:29.041Z,99481.41
2023-03-11T01:02:53.795Z,99480.41
2023-03-11T01:03:20.188Z,99482.02
2023-03-11T01:03:44.624Z,99480.55
2023-03-11T01:04:09.184Z,99483.41
2023-03-11T01:04:33.576Z,99484.02
2023-03-11T01:04:58.061Z,99486.21
2023-03-11T01:05:22.399Z,99487.00
2023-03-11T01:05:46.737Z,99485.17
2023-03-11T01:06:12.210Z,99482.69
2023-03-11T01:06:44.750Z,99484.50
2023-03-11T01:07:10.991Z,99484.42
2023-03-11T01:07:34.537Z,99484.13
2023-03-11T01:07:57.859Z,99483.84
2023-03-11T01:08:22.501Z,99479.89
2023-03-11T01:08:45.940Z,99477.67
2023-03-11T01:09:09.348Z,99476.91
2023-03-11T01:09:36.459Z,99473.77
2023-03-11T01:10:01.100Z,99478.84
2023-03-11T01:10:25.752Z,99475.73
2023-03-11T01:10:49.066Z,99474.39
2023-03-11T01:11:12.378Z,99475.98
2023-03-11T01:11:35.599Z,99477.23
2023-03-11T01:11:58.939Z,99472.75
2023-03-11T01:12:22.135Z,99473.45
2023-03-11T01:12:45.245Z,99470.59
2023-03-11T01:13:08.768Z,99471.98
2023-03-11T01:13:32.204Z,99472.04
2023-03-11T01:13:55.320Z,99472.25
2023-03-11T01:14:18.633Z,99472.21
2023-03-11T01:14:41.941Z,99471.91
2023-03-11T01:15:05.981Z,99472.55
2023-03-11T01:15:30.137Z,99473.04
2023-03-11T01:15:55.279Z,99471.40
2023-03-11T01:16:18.465Z,99472.75
2023-03-11T01:16:41.641Z,99474.04
2023-03-11T01:17:05.738Z,99471.25
2023-03-11T01:17:29.789Z,99472.58
2023-03-11T01:17:52.888Z,99470.20
2023-03-11T01:18:16.414Z,99467.02
2023-03-11T01:18:39.935Z,99464.30
2023-03-11T01:19:03.376Z,99469.71
2023-03-11T01:19:26.472Z,99467.07
2023-03-11T01:19:50.936Z,99465.62
2023-03-11T01:20:14.129Z,99462.46
2023-03-11T01:20:38.022Z,99461.59
2023-03-11T01:21:01.504Z,99461.79
2023-03-11T01:21:24.804Z,99461.79
2023-03-11T01:21:48.024Z,99464.58
2023-03-11T01:22:11.259Z,99462.20
2023-03-11T01:22:34.656Z,99461.55
2023-03-11T01:22:58.287Z,99461.45
2023-03-11T01:23:21.783Z,99459.05
2023-03-11T01:23:44.821Z,99457.77
2023-03-11T01:24:08.144Z,99458.20
2023-03-11T01:24:31.356Z,99457.90
2023-03-11T01:24:56.303Z,99459.94
2023-03-11T01:25:21.157Z,99456.21
2023-03-11T01:25:45.155Z,99459.10
2023-03-11T01:26:08.510Z,99453.96
2023-03-11T01:26:31.732Z,99455.38
2023-03-11T01:26:54.739Z,99460.94
2023-03-11T01:27:17.852Z,99452.09
2023-03-11T01:27:41.277Z,99458.75
2023-03-11T01:28:04.696Z,99455.69
2023-03-11T01:28:27.707Z,99457.88
2023-03-11T01:28:50.828Z,99458.13
2023-03-11T01:29:13.942Z,99461.14
2023-03-11T01:29:37.059Z,99457.52
2023-03-11T01:30:00.160Z,99460.20
2023-03-11T01:30:23.922Z,99459.52
2023-03-11T01:30:47.551Z,99461.50
2023-03-11T01:31:11.891Z,99462.24
2023-03-11T01:31:35.892Z,99460.98
2023-03-11T01:31:59.539Z,99463.55
2023-03-11T01:32:23.284Z,99464.19
2023-03-11T01:32:46.456Z,99464.15
2023-03-11T01:33:14.621Z,99462.89
2023-03-11T01:33:37.699Z,99463.63
2023-03-11T01:34:01.735Z,99466.48
2023-03-11T01:34:29.349Z,99468.05
2023-03-11T01:34:58.190Z,99467.98
2023-03-11T01:35:24.677Z,99466.70
2023-03-11T01:35:50.909Z,99468.60
2023-03-11T01:36:16.736Z,99467.36
2023-03-11T01:36:41.183Z,99465.49
2023-03-11T01:37:04.702Z,99467.45
2023-03-11T01:37:28.237Z,99465.45
2023-03-11T01:37:52.669Z,99467.26
2023-03-11T01:38:16.297Z,99465.19
2023-03-11T01:38:39.318Z,99463.54
2023-03-11T01:39:02.545Z,99465.33
2023-03-11T01:39:25.657Z,99463.41
2023-03-11T01:39:49.057Z,99465.74
2023-03-11T01:40:14.728Z,99464.78
2023-03-11T01:40:39.174Z,99461.64
2023-03-11T01:41:04.435Z,99462.21
2023-03-11T01:41:29.609Z,99463.78
2023-03-11T01:41:53.357Z,99459.27
2023-03-11T01:42:16.432Z,99460.16
2023-03-11T01:42:39.756Z,99459.48
2023-03-11T01:43:03.176Z,99459.98
2023-03-11T01:43:39.904Z,99460.63
2023-03-11T01:44:06.175Z,99461.00
2023-03-11T01:44:32.354Z,99458.55
2023-03-11T01:44:56.289Z,99456.25
2023-03-11T01:45:25.421Z,99459.20
2023-03-11T01:45:51.336Z,99457.29
2023-03-11T01:46:19.561Z,99448.88
2023-03-11T01:46:52.382Z,99447.99
2023-03-11T01:47:29.907Z,99446.11
2023-03-11T01:47:53.244Z,99444.83
2023-03-11T01:48:16.547Z,99442.73
2023-03-11T01:48:40.072Z,99443.64
2023-03-11T01:49:03.950Z,99442.59
2023-03-11T01:49:29.257Z,99444.77
2023-03-11T01:49:52.497Z,99442.48
2023-03-11T01:50:15.587Z,99442.79
2023-03-11T01:50:40.458Z,99443.28
2023-03-11T01:51:03.881Z,99439.95
2023-03-11T01:51:38.368Z,99443.21
2023-03-11T01:52:04.105Z,99441.80
2023-03-11T01:52:30.183Z,99441.65
2023-03-11T01:52:53.610Z,99443.61
2023-03-11T01:53:16.926Z,99439.59
2023-03-11T01:53:40.545Z,99443.90
2023-03-11T01:54:05.093Z,99442.09
2023-03-11T01:54:29.024Z,99441.89
2023-03-11T01:54:52.658Z,99441.36
2023-03-11T01:55:15.969Z,99442.23
2023-03-11T01:55:39.703Z,99442.14
2023-03-11T01:56:03.637Z,99439.66
2023-03-11T01:56:27.356Z,99442.57
2023-03-11T01:56:51.082Z,99444.77
2023-03-11T01:57:18.709Z,99445.25
2023-03-11T01:57:42.530Z,99446.55
2023-03-11T01:58:07.481Z,99445.76
2023-03-11T01:58:31.926Z,99446.55
2023-03-11T01:58:55.247Z,99443.89
2023-03-11T01:59:21.436Z,99443.16
2023-03-11T01:59:45.565Z,99443.95
2023-03-11T02:00:09.365Z,99441.10
2023-03-11T02:00:37.455Z,99440.85
2023-03-11T02:01:01.556Z,99443.25
2023-03-11T02:01:26.490Z,99439.17
2023-03-11T02:01:55.597Z,99439.14
2023-03-11T02:02:25.624Z,99441.77
2023-03-11T02:02:50.736Z,99444.53
2023-03-11T02:03:16.087Z,99442.81
2023-03-11T02:03:40.494Z,99447.16
2023-03-11T02:04:04.123Z,99445.19
2023-03-11T02:04:28.873Z,99445.56
2023-03-11T02:04:52.392Z,99445.36
2023-03-11T02:05:18.581Z,99442.56
2023-03-11T02:05:42.534Z,99440.95
2023-03-11T02:06:07.363Z,99438.31
2023-03-11T02:06:30.982Z,99435.19
2023-03-11T02:06:54.509Z,99435.79
2023-03-11T02:07:18.128Z,99432.30
2023-03-11T02:07:45.650Z,99433.57
2023-03-11T02:08:14.995Z,99430.69
2023-03-11T02:08:44.864Z,99433.04
2023-03-11T02:09:09.053Z,99430.06
2023-03-11T02:09:32.209Z,99430.23
2023-03-11T02:09:56.964Z,99431.64
2023-03-11T02:10:20.500Z,99428.50
2023-03-11T02:10:43.821Z,99429.91
2023-03-11T02:11:08.359Z,99428.95
2023-03-11T02:11:32.820Z,99429.66
2023-03-11T02:11:56.316Z,99429.73
2023-03-11T02:12:19.839Z,99429.59
2023-03-11T02:12:42.954Z,99425.22
2023-03-11T02:13:06.802Z,99427.33
2023-03-11T02:13:30.313Z,99425.80
2023-03-11T02:13:54.352Z,99425.44
2023-03-11T02:14:20.731Z,99423.19
2023-03-11T02:14:46.399Z,99423.64
2023-03-11T02:15:16.370Z,99422.80
2023-03-11T02:15:40.155Z,99419.77
2023-03-11T02:16:05.620Z,99419.86
2023-03-11T02:16:28.856Z,99421.56
2023-03-11T02:16:52.303Z,99421.80
2023-03-11T02:17:17.056Z,99422.13
2023-03-11T02:17:42.943Z,99422.84
2023-03-11T02:18:06.662Z,99420.96
2023-03-11T02:18:30.897Z,99424.27
2023-03-11T02:18:53.844Z,99422.05
2023-03-11T02:19:20.090Z,99419.02
2023-03-11T02:19:43.511Z,99415.73
2023-03-11T02:20:19.918Z,99417.35
2023-03-11T02:20:47.636Z,99418.27
2023-03-11T02:21:14.023Z,99416.88
2023-03-11T02:21:38.679Z,99415.98
2023-03-11T02:22:03.934Z,99415.95
2023-03-11T02:22:30.119Z,99415.73
2023-03-11T02:22:57.256Z,99416.39
2023-03-11T02:23:21.567Z,99416.36
2023-03-11T02:23:56.747Z,99414.16
2023-03-11T02:24:25.380Z,99415.89
2023-03-11T02:24:56.065Z,99417.11
2023-03-11T02:25:25.627Z,99412.20
2023-03-11T02:25:51.808Z,99412.91
2023-03-11T02:26:20.247Z,99410.16
2023-03-11T02:26:52.279Z,99411.23
2023-03-11T02:27:16.587Z,99409.05
2023-03-11T02:27:42.052Z,99408.41
2023-03-11T02:28:05.993Z,99406.88
2023-03-11T02:28:31.460Z,99403.77
2023-03-11T02:28:54.780Z,99408.66
2023-03-11T02:29:18.128Z,99410.77
2023-03-11T02:29:42.052Z,99406.45
2023-03-11T02:30:06.779Z,99408.02
2023-03-11T02:30:31.764Z,99408.39
2023-03-11T02:30:55.969Z,99411.75
2023-03-11T02:31:19.521Z,99414.84
2023-03-11T02:31:43.281Z,99410.23
2023-03-11T02:32:08.936Z,99413.80
2023-03-11T02:32:32.464Z,99412.00
2023-03-11T02:32:55.723Z,99413.80
2023-03-11T02:33:19.361Z,99414.08
2023-03-11T02:33:46.258Z,99409.14
2023-03-11T02:34:12.030Z,99410.44
2023-03-11T02:34:36.068Z,99405.08
2023-03-11T02:34:59.077Z,99405.33
2023-03-11T02:35:22.191Z,99406.19
2023-03-11T02:35:45.535Z,99401.90
2023-03-11T02:36:29.485Z,99405.30
2023-03-11T02:36:53.524Z,99405.02
2023-03-11T02:37:17.048Z,99404.25
2023-03-11T02:37:45.803Z,99401.83
2023-03-11T02:38:08.898Z,99400.43
2023-03-11T02:38:32.011Z,99401.47
2023-03-11T02:38:55.430Z,99404.11
2023-03-11T02:39:29.294Z,99404.16
2023-03-11T02:40:10.303Z,99403.52
2023-03-11T02:40:40.774Z,99397.84
2023-03-11T02:41:06.979Z,99401.20
2023-03-11T02:41:33.507Z,99399.31
2023-03-11T02:41:56.971Z,99399.23
2023-03-11T02:42:24.395Z,99401.02
2023-03-11T02:42:49.028Z,99400.69
2023-03-11T02:43:13.591Z,99399.63
2023-03-11T02:43:39.349Z,99398.20
2023-03-11T02:44:02.669Z,99400.71
2023-03-11T02:44:26.397Z,99398.15
2023-03-11T02:44:52.780Z,99397.04
2023-03-11T02:45:16.610Z,99396.42
2023-03-11T02:45:40.643Z,99398.07
2023-03-11T02:46:05.292Z,99397.02
2023-03-11T02:46:30.156Z,99395.33
2023-03-11T02:46:54.626Z,99397.17
2023-03-11T02:47:19.966Z,99398.55
2023-03-11T02:47:43.088Z,99396.84
2023-03-11T02:48:09.656Z,99399.58
2023-03-11T02:48:34.726Z,99396.59
2023-03-11T02:48:58.030Z,99397.09
2023-03-11T02:49:21.463Z,99394.55
2023-03-11T02:49:45.075Z,99398.02
2023-03-11T02:50:09.765Z,99395.89
2023-03-11T02:50:34.679Z,99393.37
2023-03-11T02:50:57.843Z,99393.31
2023-03-11T02:51:22.649Z,99392.36
2023-03-11T02:51:47.919Z,99393.31
2023-03-11T02:52:13.177Z,99391.52
2023-03-11T02:52:37.941Z,99391.42
2023-03-11T02:53:02.167Z,99393.89
2023-03-11T02:53:25.993Z,99392.25
2023-03-11T02:53:51.050Z,99390.23
2023-03-11T02:54:14.375Z,99391.90
2023-03-11T02:54:39.220Z,99392.87
2023-03-11T02:55:02.738Z,99392.33
2023-03-11T02:55:26.466Z,99392.83
2023-03-11T02:55:49.684Z,99394.04
2023-03-11T02:56:12.635Z,99393.54
2023-03-11T02:56:35.810Z,99392.34
2023-03-11T02:56:59.054Z,99391.88
2023-03-11T02:57:23.370Z,99388.23
2023-03-11T02:57:47.402Z,99389.47
2023-03-11T02:58:10.419Z,99385.52
2023-03-11T02:58:35.982Z,99389.86
2023-03-11T02:58:59.406Z,99390.92
2023-03-11T02:59:22.529Z,99389.21
2023-03-11T02:59:45.754Z,99388.14
2023-03-11T03:00:12.464Z,99391.12
2023-03-11T03:00:36.202Z,99394.45
2023-03-11T03:01:01.647Z,99393.63
2023-03-11T03:01:25.244Z,99394.65
2023-03-11T03:01:48.973Z,99395.38
2023-03-11T03:02:12.216Z,99394.84
2023-03-11T03:02:35.615Z,99394.52
2023-03-11T03:02:59.030Z,99392.81
2023-03-11T03:03:22.144Z,99393.89
2023-03-11T03:03:45.598Z,99394.45
2023-03-11T03:04:08.628Z,99393.45
2023-03-11T03:04:32.988Z,99391.55
2023-03-11T03:04:58.692Z,99392.27
2023-03-11T03:05:22.972Z,99391.54
2023-03-11T03:05:47.278Z,99389.90
2023-03-11T03:06:12.019Z,99387.55
2023-03-11T03:06:37.487Z,99388.55
2023-03-11T03:07:01.946Z,99386.30
2023-03-11T03:07:26.626Z,99384.62
2023-03-11T03:07:51.949Z,99382.29
2023-03-11T03:08:15.685Z,99378.40
2023-03-11T03:08:38.774Z,99381.16
2023-03-11T03:09:01.901Z,99376.34
2023-03-11T03:09:25.019Z,99376.50
2023-03-11T03:09:48.330Z,99379.73
2023-03-11T03:10:11.960Z,99377.09
2023-03-11T03:10:41.829Z,99377.23
2023-03-11T03:11:05.202Z,99377.83
2023-03-11T03:11:32.650Z,99377.91
2023-03-11T03:11:56.072Z,99377.85
2023-03-11T03:12:19.494Z,99375.66
2023-03-11T03:12:42.785Z,99376.07
2023-03-11T03:13:07.254Z,99382.56
2023-03-11T03:13:32.724Z,99379.18
2023-03-11T03:13:56.786Z,99376.09
2023-03-11T03:14:20.791Z,99378.84
2023-03-11T03:14:44.622Z,99370.73
2023-03-11T03:15:08.452Z,99368.93
2023-03-11T03:15:32.588Z,99376.86
2023-03-11T03:15:58.460Z,99373.34
2023-03-11T03:16:23.079Z,99374.46
2023-03-11T03:16:46.574Z,99369.82
2023-03-11T03:17:09.954Z,99370.78
2023-03-11T03:17:33.190Z,99370.30
2023-03-11T03:17:56.796Z,99370.92
2023-03-11T03:18:25.287Z,99370.83
2023-03-11T03:18:52.841Z,99368.65
2023-03-11T03:19:16.084Z,99367.72
2023-03-11T03:19:40.602Z,99368.12
2023-03-11T03:20:07.602Z,99370.29
2023-03-11T03:20:31.438Z,99371.77
2023-03-11T03:20:57.409Z,99370.81
2023-03-11T03:21:20.667Z,99371.29
2023-03-11T03:21:44.150Z,99371.70
2023-03-11T03:22:07.889Z,99369.67
2023-03-11T03:22:31.130Z,99369.96
2023-03-11T03:22:54.620Z,99369.48
2023-03-11T03:23:21.109Z,99370.62
2023-03-11T03:23:44.471Z,99371.58
2023-03-11T03:24:07.641Z,99373.19
2023-03-11T03:24:36.281Z,99373.80
2023-03-11T03:25:00.313Z,99373.48
2023-03-11T03:25:23.597Z,99372.52
2023-03-11T03:25:47.537Z,99368.58
2023-03-11T03:26:14.974Z,99369.54
2023-03-11T03:26:38.706Z,99369.46
2023-03-11T03:27:02.239Z,99370.56
2023-03-11T03:27:28.415Z,99368.79
2023-03-11T03:27:51.623Z,99367.84
2023-03-11T03:28:15.555Z,99364.10
2023-03-11T03:28:40.615Z,99367.48
2023-03-11T03:29:04.655Z,99368.09
2023-03-11T03:29:27.867Z,99365.53
2023-03-11T03:29:50.878Z,99368.17
2023-03-11T03:30:14.194Z,99367.88
2023-03-11T03:30:37.931Z,99369.00
2023-03-11T03:31:05.744Z,99365.10
2023-03-11T03:31:29.451Z,99366.95
2023-03-11T03:31:53.347Z,99364.27
2023-03-11T03:32:16.839Z,99361.92
2023-03-11T03:32:40.631Z,99362.39
2023-03-11T03:33:07.454Z,99362.95
2023-03-11T03:33:31.379Z,99363.10
2023-03-11T03:33:55.209Z,99363.23
2023-03-11T03:34:18.529Z,99362.23
2023-03-11T03:34:41.644Z,99362.58
2023-03-11T03:35:05.986Z,99361.64
2023-03-11T03:35:49.997Z,99358.79
2023-03-11T03:36:24.017Z,99355.43
2023-03-11T03:36:51.952Z,99354.46
2023-03-11T03:37:15.157Z,99354.91
2023-03-11T03:37:38.625Z,99352.15
2023-03-11T03:38:02.822Z,99350.65
2023-03-11T03:38:26.544Z,99351.91
2023-03-11T03:38:53.442Z,99348.48
2023-03-11T03:39:18.824Z,99347.70
2023-03-11T03:39:43.173Z,99348.41
2023-03-11T03:40:08.062Z,99347.39
2023-03-11T03:40:31.923Z,99345.19
2023-03-11T03:40:55.664Z,99344.98
2023-03-11T03:41:18.778Z,99346.45
2023-03-11T03:41:41.719Z,99345.13
2023-03-11T03:42:11.548Z,99342.85
2023-03-11T03:42:36.407Z,99338.77
2023-03-11T03:43:00.639Z,99340.42
2023-03-11T03:43:24.475Z,99340.37
2023-03-11T03:43:48.200Z,99342.04
2023-03-11T03:44:12.334Z,99345.75
2023-03-11T03:44:38.224Z,99342.24
2023-03-11T03:45:02.142Z,99344.64
2023-03-11T03:45:25.366Z,99341.58
2023-03-11T03:45:56.221Z,99340.13
2023-03-11T03:46:21.393Z,99341.11
2023-03-11T03:46:45.650Z,99339.88
2023-03-11T03:47:08.964Z,99339.43
2023-03-11T03:47:32.588Z,99338.67
2023-03-11T03:47:57.206Z,99340.55
2023-03-11T03:48:20.678Z,99336.00
2023-03-11T03:48:44.998Z,99336.95
2023-03-11T03:49:09.352Z,99336.98
2023-03-11T03:49:32.875Z,99334.45
2023-03-11T03:49:55.977Z,99336.02
2023-03-11T03:50:19.703Z,99337.89
2023-03-11T03:50:43.774Z,99339.34
2023-03-11T03:51:10.035Z,99343.40
2023-03-11T03:51:35.147Z,99353.52
2023-03-11T03:52:06.291Z,99354.43
2023-03-11T03:52:29.917Z,99353.23
2023-03-11T03:52:53.219Z,99353.81
2023-03-11T03:53:17.077Z,99353.52
2023-03-11T03:53:40.472Z,99353.25
2023-03-11T03:54:09.926Z,99354.58
2023-03-11T03:54:34.435Z,99352.16
2023-03-11T03:54:57.995Z,99353.56
2023-03-11T03:55:21.416Z,99352.34
2023-03-11T03:55:45.712Z,99343.69
2023-03-11T03:56:11.231Z,99343.74
2023-03-11T03:56:34.863Z,99342.77
2023-03-11T03:56:58.581Z,99349.78
2023-03-11T03:57:21.851Z,99349.01
2023-03-11T03:57:45.127Z,99352.67
2023-03-11T03:58:09.670Z,99349.61
2023-03-11T03:58:32.878Z,99346.30
2023-03-11T03:58:56.202Z,99349.00
2023-03-11T03:59:20.745Z,99346.09
2023-03-11T03:59:48.253Z,99348.75
2023-03-11T04:00:13.113Z,99353.67
2023-03-11T04:00:40.218Z,99353.67
2023-03-11T04:01:04.654Z,99351.80
2023-03-11T04:01:28.789Z,99349.42
2023-03-11T04:01:52.400Z,99351.36
2023-03-11T04:02:16.594Z,99351.55
2023-03-11T04:02:40.062Z,99345.67
2023-03-11T04:03:04.683Z,99341.98
2023-03-11T04:03:35.900Z,99338.02
2023-03-11T04:04:03.430Z,99334.73
2023-03-11T04:04:26.558Z,99338.56
2023-03-11T04:04:50.486Z,99337.33
2023-03-11T04:05:13.894Z,99336.39
2023-03-11T04:05:37.727Z,99338.09
2023-03-11T04:06:07.928Z,99338.81
2023-03-11T04:06:37.059Z,99335.96
2023-03-11T04:07:06.090Z,99336.61
2023-03-11T04:07:29.732Z,99336.40
2023-03-11T04:07:53.238Z,99340.48
2023-03-11T04:08:17.281Z,99340.12
2023-03-11T04:08:42.126Z,99340.59
2023-03-11T04:09:06.061Z,99336.52
2023-03-11T04:09:31.423Z,99339.11
2023-03-11T04:09:54.706Z,99337.73
2023-03-11T04:10:18.570Z,99337.11
2023-03-11T04:10:42.317Z,99336.68
2023-03-11T04:11:05.723Z,99333.64
2023-03-11T04:11:29.449Z,99335.86
2023-03-11T04:11:53.789Z,99332.52
2023-03-11T04:12:18.028Z,99330.77
2023-03-11T04:12:42.675Z,99324.62
2023-03-11T04:13:05.998Z,99325.47
2023-03-11T04:13:29.415Z,99329.95
2023-03-11T04:13:52.632Z,99329.38
2023-03-11T04:14:17.179Z,99332.70
2023-03-11T04:14:49.293Z,99333.36
2023-03-11T04:15:15.168Z,99333.00
2023-03-11T04:15:39.660Z,99334.21
2023-03-11T04:16:19.077Z,99333.29
2023-03-11T04:16:44.991Z,99331.04
2023-03-11T04:17:09.222Z,99325.90
2023-03-11T04:17:32.643Z,99325.20
2023-03-11T04:17:59.290Z,99322.55
2023-03-11T04:18:23.072Z,99322.55
2023-03-11T04:18:46.672Z,99319.23
2023-03-11T04:19:10.520Z,99318.77
2023-03-11T04:19:33.923Z,99320.25
2023-03-11T04:19:57.141Z,99317.30
2023-03-11T04:20:20.867Z,99315.71
2023-03-11T04:20:45.014Z,99313.24
2023-03-11T04:21:12.755Z,99313.64
2023-03-11T04:21:38.220Z,99309.70
2023-03-11T04:22:04.632Z,99307.10
2023-03-11T04:22:29.238Z,99309.98
2023-03-11T04:22:52.549Z,99308.36
2023-03-11T04:23:17.400Z,99309.48
2023-03-11T04:23:40.551Z,99308.90
2023-03-11T04:24:03.879Z,99312.13
2023-03-11T04:24:30.109Z,99310.91
2023-03-11T04:24:53.837Z,99305.94
2023-03-11T04:25:17.387Z,99307.89
2023-03-11T04:25:40.584Z,99309.00
2023-03-11T04:26:04.200Z,99309.08
2023-03-11T04:26:28.588Z,99305.46
2023-03-11T04:26:51.764Z,99302.42
2023-03-11T04:27:15.825Z,99297.26
2023-03-11T04:27:42.798Z,99301.55
2023-03-11T04:28:08.992Z,99299.90
2023-03-11T04:28:32.295Z,99299.63
2023-03-11T04:28:55.815Z,99300.56
2023-03-11T04:29:19.753Z,99303.08
2023-03-11T04:29:45.831Z,99309.63
2023-03-11T04:30:09.661Z,99309.38
2023-03-11T04:30:36.379Z,99307.38
2023-03-11T04:31:01.625Z,99305.86
2023-03-11T04:31:26.369Z,99304.63
2023-03-11T04:31:50.401Z,99303.55
2023-03-11T04:32:16.073Z,99302.13
2023-03-11T04:32:39.760Z,99302.15
2023-03-11T04:33:03.425Z,99303.65
2023-03-11T04:33:26.543Z,99302.91
2023-03-11T04:33:49.670Z,99301.58
2023-03-11T04:34:12.968Z,99304.46
2023-03-11T04:34:36.803Z,99302.38
2023-03-11T04:35:00.458Z,99301.20
2023-03-11T04:35:24.610Z,99298.04
2023-03-11T04:35:47.925Z,99296.92
2023-03-11T04:36:12.971Z,99293.84
2023-03-11T04:36:36.358Z,99293.02
2023-03-11T04:36:59.675Z,99290.61
2023-03-11T04:37:29.337Z,99294.04
2023-03-11T04:37:52.450Z,99296.06
2023-03-11T04:38:15.631Z,99297.86
2023-03-11T04:38:42.875Z,99298.66
2023-03-11T04:39:06.909Z,99302.96
2023-03-11T04:39:35.150Z,99303.09
2023-03-11T04:40:00.913Z,99309.27
2023-03-11T04:40:24.566Z,99311.33
2023-03-11T04:40:48.074Z,99302.75
2023-03-11T04:41:11.902Z,99312.36
2023-03-11T04:41:37.990Z,99309.32
2023-03-11T04:42:03.887Z,99311.51
2023-03-11T04:42:28.485Z,99307.45
2023-03-11T04:42:53.145Z,99305.98
2023-03-11T04:43:16.395Z,99305.80
2023-03-11T04:43:41.512Z,99305.37
2023-03-11T04:44:04.726Z,99305.17
2023-03-11T04:44:28.054Z,99309.34
2023-03-11T04:44:56.690Z,99310.49
2023-03-11T04:45:19.901Z,99314.13
2023-03-11T04:45:44.547Z,99312.31
2023-03-11T04:46:09.933Z,99307.84
2023-03-11T04:46:33.873Z,99313.55
2023-03-11T04:46:57.674Z,99314.23
2023-03-11T04:47:22.217Z,99312.54
2023-03-11T04:47:48.921Z,99314.63
2023-03-11T04:48:12.117Z,99315.48
2023-03-11T04:48:35.841Z,99317.81
2023-03-11T04:48:58.999Z,99319.65
2023-03-11T04:49:22.900Z,99319.00
2023-03-11T04:49:46.219Z,99320.61
2023-03-11T04:50:09.553Z,99313.76
2023-03-11T04:50:33.180Z,99317.19
2023-03-11T04:50:58.731Z,99314.89
2023-03-11T04:51:22.159Z,99316.46
2023-03-11T04:51:46.305Z,99314.83
2023-03-11T04:52:10.222Z,99313.27